Time;durP1;ratioP1;P1;durP2;ratioP2;P2;SDS_P1;SDS_P2;PMS_P1;PMS_P2;Temp;Humidity;BMP_temperature;BMP_pressure;BME280_temperature;BME280_humidity;BME280_pressure;Samples;Min_cycle;Max_cycle;Signal;HPM_P1;HPM_P2
2022/06/04 00:00:57;;;;;;;2.83;2.33;;;;;;;17.76;50.89;101567.41;3559512;40;20057;-63
2022/06/04 00:03:23;;;;;;;3.85;2.30;;;;;;;17.75;49.51;101561.13;3560815;40;20092;-63
2022/06/04 00:05:55;;;;;;;7.53;2.25;;;;;;;17.69;48.93;101567.06;3559191;40;20384;-62
2022/06/04 00:08:21;;;;;;;3.05;2.00;;;;;;;17.64;49.68;101566.56;3561683;40;20053;-62
2022/06/04 00:16:26;;;;;;;4.43;2.00;;;;;;;17.52;49.62;101559.38;3559294;40;20060;-63
2022/06/04 00:18:51;;;;;;;5.05;2.17;;;;;;;17.51;49.20;101561.25;3557666;40;20455;-62
2022/06/04 00:21:17;;;;;;;5.07;2.08;;;;;;;17.51;50.01;101558.53;3558936;40;20061;-63
2022/06/04 00:23:43;;;;;;;4.15;2.20;;;;;;;17.51;49.87;101557.66;3559086;40;20131;-63
2022/06/04 00:26:13;;;;;;;2.58;2.00;;;;;;;17.48;50.39;101560.63;3560610;40;20049;-63
2022/06/04 00:28:39;;;;;;;4.10;2.25;;;;;;;17.44;49.89;101570.84;3560285;40;20326;-62
2022/06/04 00:31:05;;;;;;;3.17;2.30;;;;;;;17.42;49.55;101571.97;3562269;40;20073;-62
2022/06/04 00:33:32;;;;;;;3.85;1.95;;;;;;;16.70;49.63;101458.91;3561304;40;20049;-62
2022/06/04 00:36:00;;;;;;;4.30;1.90;;;;;;;17.36;49.62;101576.91;3559232;40;20050;-62
2022/06/04 00:38:29;;;;;;;5.10;2.20;;;;;;;17.35;49.74;101577.91;3557196;40;20103;-62
2022/06/04 00:41:26;;;;;;;2.70;1.90;;;;;;;17.31;49.93;101573.66;3560387;40;20071;-62
2022/06/04 00:44:15;;;;;;;3.63;1.85;;;;;;;17.29;49.74;101558.50;3559308;40;20057;-62
2022/06/04 00:46:41;;;;;;;2.90;2.10;;;;;;;17.27;49.53;101552.31;3552841;40;20093;-63
2022/06/04 00:49:25;;;;;;;2.95;1.85;;;;;;;17.15;50.36;101538.69;3556535;40;20053;-62
2022/06/04 00:51:53;;;;;;;4.18;2.13;;;;;;;17.08;49.36;101539.28;3561698;40;20081;-62
2022/06/04 00:54:20;;;;;;;2.90;2.13;;;;;;;17.24;49.41;101571.56;3557471;40;20045;-62
2022/06/04 00:57:23;;;;;;;3.38;1.65;;;;;;;17.21;49.78;101588.97;3560436;40;20352;-62
2022/06/04 01:00:07;;;;;;;2.33;2.00;;;;;;;17.16;48.98;101592.06;3558946;40;20387;-63
2022/06/04 01:03:05;;;;;;;4.72;2.08;;;;;;;17.10;49.20;101583.50;3556602;40;20347;-62
2022/06/04 01:05:33;;;;;;;2.38;2.15;;;;;;;17.13;49.68;101592.28;3557044;40;20159;-63
2022/06/04 01:08:17;;;;;;;3.72;1.90;;;;;;;17.12;49.27;101601.41;3562254;40;20144;-62
2022/06/04 01:11:07;;;;;;;3.97;1.88;;;;;;;17.08;49.53;101615.34;3559313;40;20045;-63
2022/06/04 01:14:28;;;;;;;3.00;1.90;;;;;;;17.05;49.12;101612.88;3562567;40;20092;-62
2022/06/04 01:17:14;;;;;;;3.00;1.80;;;;;;;17.01;49.20;101597.81;3553853;40;20080;-62
2022/06/04 01:20:14;;;;;;;3.72;1.90;;;;;;;16.99;48.84;101605.19;3561668;40;20066;-64
2022/06/04 01:23:22;;;;;;;2.33;2.13;;;;;;;16.90;49.63;101607.66;3560482;40;20095;-62
2022/06/04 01:26:28;;;;;;;2.67;2.10;;;;;;;16.87;49.42;101607.88;3560101;40;20049;-62
2022/06/04 01:29:05;;;;;;;2.92;2.15;;;;;;;16.83;49.42;101617.22;3556890;40;20053;-63
2022/06/04 01:31:47;;;;;;;4.25;2.15;;;;;;;16.69;49.98;101604.66;3558992;40;20076;-62
2022/06/04 01:34:22;;;;;;;3.45;1.90;;;;;;;16.72;49.79;101619.84;3559830;40;20272;-63
2022/06/04 01:37:08;;;;;;;4.55;2.08;;;;;;;16.71;49.60;101619.00;3556893;40;20049;-62
2022/06/04 01:42:35;;;;;;;3.33;2.10;;;;;;;16.65;49.57;101619.47;3556957;40;20070;-62
2022/06/04 01:45:08;;;;;;;3.83;2.10;;;;;;;16.62;50.20;101619.69;3558420;40;20061;-62
2022/06/04 01:47:37;;;;;;;3.58;2.15;;;;;;;16.57;49.97;101623.72;3557505;40;20089;-66
2022/06/04 01:50:14;;;;;;;5.22;2.10;;;;;;;16.56;50.26;101639.13;3555775;40;20385;-63
2022/06/04 01:52:43;;;;;;;4.05;2.10;;;;;;;16.57;50.29;101648.16;3558767;40;20389;-63
2022/06/04 01:55:21;;;;;;;6.03;2.08;;;;;;;16.55;50.29;101650.09;3558351;40;20082;-63
2022/06/04 01:57:57;;;;;;;2.55;1.85;;;;;;;16.52;50.56;101644.88;3560338;40;20308;-63
2022/06/04 02:00:34;;;;;;;4.45;2.20;;;;;;;16.43;50.28;101635.59;3559414;40;20061;-63
2022/06/04 02:03:24;;;;;;;2.92;2.25;;;;;;;16.44;50.68;101649.03;3560710;40;20059;-62
2022/06/04 02:06:07;;;;;;;2.55;2.20;;;;;;;16.41;50.86;101637.56;3560894;40;20066;-62
2022/06/04 02:09:06;;;;;;;2.22;2.10;;;;;;;16.29;50.87;101636.59;3558609;40;20091;-62
2022/06/04 02:11:32;;;;;;;2.42;2.22;;;;;;;16.36;50.91;101654.16;3557653;40;20057;-62
2022/06/04 02:14:06;;;;;;;3.67;2.20;;;;;;;16.30;50.74;101646.50;3556670;40;20061;-62
2022/06/04 02:16:53;;;;;;;3.25;2.10;;;;;;;16.28;51.11;101637.59;3556713;40;20635;-63
2022/06/04 02:19:19;;;;;;;3.70;2.30;;;;;;;16.24;51.56;101646.94;3555420;40;20474;-62
2022/06/04 02:21:46;;;;;;;2.72;2.30;;;;;;;16.09;51.46;101631.75;3557739;40;20061;-62
2022/06/04 02:24:12;;;;;;;3.88;2.17;;;;;;;16.19;51.19;101639.13;3557485;40;20057;-62
2022/06/04 02:26:41;;;;;;;2.55;2.08;;;;;;;16.21;51.17;101655.28;3562831;40;20087;-63
2022/06/04 02:29:07;;;;;;;4.57;2.38;;;;;;;16.17;51.63;101651.03;3556806;40;20369;-62
2022/06/04 02:32:06;;;;;;;5.35;2.50;;;;;;;16.16;51.54;101652.03;3558524;40;20116;-62
2022/06/04 02:35:13;;;;;;;2.85;2.22;;;;;;;16.12;51.94;101642.38;3558991;40;20073;-63
2022/06/04 02:38:01;;;;;;;4.85;2.28;;;;;;;16.02;52.42;101634.91;3560340;40;20459;-62
2022/06/04 02:40:40;;;;;;;4.45;2.75;;;;;;;15.97;52.51;101639.78;3561231;40;20376;-63
2022/06/04 02:43:47;;;;;;;3.42;2.60;;;;;;;15.96;52.52;101626.34;3560389;40;20065;-63
2022/06/04 02:46:41;;;;;;;5.22;2.50;;;;;;;15.90;52.56;101614.09;3554626;40;20053;-62
2022/06/04 02:49:21;;;;;;;3.00;2.42;;;;;;;15.27;52.59;101517.41;3553675;40;20064;-62
2022/06/04 02:51:53;;;;;;;3.65;2.33;;;;;;;15.78;53.24;101596.84;3551262;40;20054;-62
2022/06/04 02:54:52;;;;;;;4.20;2.50;;;;;;;15.77;53.27;101595.13;3552937;40;20046;-62
2022/06/04 02:57:19;;;;;;;6.97;2.80;;;;;;;15.81;53.17;101594.91;3551982;40;20061;-62
2022/06/04 02:59:48;;;;;;;3.70;2.53;;;;;;;15.12;53.26;101470.59;3554816;40;20056;-62
2022/06/04 03:02:19;;;;;;;4.63;3.00;;;;;;;15.77;53.38;101573.44;3552026;40;20049;-62
2022/06/04 03:04:52;;;;;;;3.65;2.58;;;;;;;15.72;53.78;101580.16;3552930;40;20056;-62
2022/06/04 03:07:21;;;;;;;3.90;2.55;;;;;;;15.72;53.87;101581.03;3552019;40;20606;-61
2022/06/04 03:09:52;;;;;;;4.10;2.47;;;;;;;15.68;54.16;101579.53;3552149;40;20046;-62
2022/06/04 03:12:18;;;;;;;4.10;3.08;;;;;;;15.64;53.73;101588.81;3553957;40;20105;-62
2022/06/04 03:14:44;;;;;;;7.18;2.85;;;;;;;15.63;53.97;101588.91;3552709;40;20297;-62
2022/06/04 03:17:12;;;;;;;4.90;2.80;;;;;;;15.00;54.08;101482.28;3555024;40;20292;-62
2022/06/04 03:19:39;;;;;;;4.25;3.00;;;;;;;15.57;54.13;101582.06;3548437;40;20073;-62
2022/06/04 03:22:06;;;;;;;5.43;3.10;;;;;;;15.60;54.42;101586.41;3552460;40;20053;-61
2022/06/04 03:24:31;;;;;;;4.80;3.00;;;;;;;15.56;54.26;101580.34;3552517;40;20061;-62
2022/06/04 03:26:57;;;;;;;4.30;2.75;;;;;;;15.49;55.13;101577.22;3553672;40;20057;-62
2022/06/04 03:29:23;;;;;;;5.80;3.30;;;;;;;15.40;55.41;101575.16;3551102;40;20096;-62
2022/06/04 03:31:49;;;;;;;6.15;3.35;;;;;;;15.36;55.47;101572.78;3551790;40;20061;-62
2022/06/04 03:34:15;;;;;;;6.03;3.17;;;;;;;15.29;55.53;101566.94;3552870;40;20050;-62
2022/06/04 03:36:41;;;;;;;5.22;3.33;;;;;;;15.34;56.19;101567.44;3554437;40;20399;-62
2022/06/04 03:39:10;;;;;;;4.93;3.38;;;;;;;15.21;56.09;101553.03;3551438;40;20081;-61
2022/06/04 03:41:37;;;;;;;4.20;3.70;;;;;;;15.07;56.16;101545.88;3556198;40;20049;-63
2022/06/04 03:44:03;;;;;;;6.15;3.20;;;;;;;15.25;56.23;101593.31;3553872;40;20393;-62
2022/06/04 03:46:29;;;;;;;9.38;3.88;;;;;;;15.28;56.82;101586.84;3554572;40;20121;-62
2022/06/04 03:48:57;;;;;;;7.00;3.90;;;;;;;15.27;56.60;101599.53;3563593;40;20716;-62
2022/06/04 03:51:27;;;;;;;4.80;3.83;;;;;;;14.72;56.73;101502.28;3562986;40;20064;-62
2022/06/04 03:53:53;;;;;;;4.60;3.67;;;;;;;15.20;56.86;101600.94;3561775;40;20065;-62
2022/06/04 03:56:19;;;;;;;4.95;3.50;;;;;;;14.42;57.22;101456.50;3563048;40;20053;-62
2022/06/04 03:58:45;;;;;;;9.60;4.45;;;;;;;15.23;57.08;101600.72;3552742;40;20157;-62
2022/06/04 04:01:23;;;;;;;5.50;3.88;;;;;;;15.24;57.33;101613.28;3562758;40;20057;-62
2022/06/04 04:03:50;;;;;;;8.43;3.90;;;;;;;15.27;57.33;101606.78;3561986;40;20053;-62
2022/06/04 04:06:25;;;;;;;7.30;4.07;;;;;;;15.28;57.11;101605.78;3563963;40;20312;-62
2022/06/04 04:08:53;;;;;;;4.30;3.90;;;;;;;15.23;57.22;101610.69;3563945;40;20106;-62
2022/06/04 04:11:24;;;;;;;5.53;4.65;;;;;;;15.21;57.40;101604.50;3562370;40;20049;-61
2022/06/04 04:13:51;;;;;;;7.47;4.20;;;;;;;15.15;57.75;101613.03;3559901;40;20124;-62
2022/06/04 04:16:20;;;;;;;5.82;4.30;;;;;;;14.61;57.57;101527.34;3562301;40;20052;-60
2022/06/04 04:18:46;;;;;;;5.22;4.10;;;;;;;15.15;57.45;101619.31;3561325;40;20050;-61
2022/06/04 04:21:16;;;;;;;6.05;3.90;;;;;;;15.14;57.95;101616.72;3563274;40;20053;-61
2022/06/04 04:23:44;;;;;;;6.65;4.10;;;;;;;14.37;58.01;101481.16;3561078;40;20057;-60
2022/06/04 04:26:13;;;;;;;6.88;4.13;;;;;;;15.14;58.13;101619.44;3562420;40;20059;-61
2022/06/04 04:28:39;;;;;;;6.38;4.40;;;;;;;15.14;58.19;101627.56;3558568;40;20610;-60
2022/06/04 04:31:22;;;;;;;6.00;4.13;;;;;;;15.12;58.22;101629.50;3563062;40;20057;-61
2022/06/04 04:33:48;;;;;;;5.95;4.00;;;;;;;15.06;58.48;101626.25;3559677;40;20329;-61
2022/06/04 04:36:14;;;;;;;6.32;4.70;;;;;;;15.06;59.15;101628.97;3562912;40;20057;-61
2022/06/04 04:38:40;;;;;;;8.95;4.32;;;;;;;15.05;58.92;101642.59;3561774;40;20173;-61
2022/06/04 04:41:14;;;;;;;4.57;4.18;;;;;;;15.11;59.60;101644.88;3563367;40;20057;-60
2022/06/04 04:43:41;;;;;;;7.07;4.63;;;;;;;15.11;59.06;101650.31;3560257;40;20400;-60
2022/06/04 04:46:11;;;;;;;9.77;4.55;;;;;;;15.13;59.24;101659.19;3562686;40;20307;-60
2022/06/04 04:48:38;;;;;;;6.85;4.57;;;;;;;14.98;59.29;101617.78;3561988;40;20060;-61
2022/06/04 04:51:05;;;;;;;9.35;4.47;;;;;;;15.18;59.22;101656.16;3562709;40;20069;-61
2022/06/04 04:53:31;;;;;;;6.30;4.75;;;;;;;15.19;59.33;101660.59;3562685;40;20073;-61
2022/06/04 04:55:56;;;;;;;7.78;4.70;;;;;;;15.14;59.08;101641.09;3562993;40;20065;-61
2022/06/04 04:58:22;;;;;;;5.88;4.30;;;;;;;15.22;59.78;101665.81;3567076;40;20052;-61
2022/06/04 05:00:48;;;;;;;8.18;4.97;;;;;;;15.22;59.57;101646.84;3562962;40;20076;-62
2022/06/04 05:03:13;;;;;;;6.65;4.75;;;;;;;15.21;59.49;101651.41;3563527;40;20065;-61
2022/06/04 05:05:39;;;;;;;10.63;5.00;;;;;;;15.26;59.45;101653.81;3561249;40;20057;-61
2022/06/04 05:08:05;;;;;;;8.38;4.32;;;;;;;15.28;59.66;101657.25;3563099;40;20057;-61
2022/06/04 05:10:31;;;;;;;8.90;4.70;;;;;;;15.29;59.62;101661.72;3563012;40;20045;-61
2022/06/04 05:12:57;;;;;;;8.88;5.40;;;;;;;15.27;59.67;101659.13;3562371;40;20053;-61
2022/06/04 05:15:24;;;;;;;11.77;5.30;;;;;;;15.23;59.55;101648.59;3565842;40;20122;-60
2022/06/04 05:17:50;;;;;;;5.40;4.90;;;;;;;15.22;59.99;101657.69;3562599;40;20053;-61
2022/06/04 05:20:16;;;;;;;6.65;4.93;;;;;;;15.25;59.73;101671.03;3563689;40;20285;-61
2022/06/04 05:22:43;;;;;;;9.40;5.40;;;;;;;15.26;59.88;101664.66;3558922;40;20071;-61
2022/06/04 05:25:11;;;;;;;9.43;5.47;;;;;;;15.31;60.15;101667.91;3559428;40;20073;-61
2022/06/04 05:27:37;;;;;;;10.50;5.18;;;;;;;15.35;60.04;101664.03;3557523;40;20322;-60
2022/06/04 05:30:04;;;;;;;8.75;5.43;;;;;;;15.36;59.89;101670.31;3621987;23;20089;-61
2022/06/04 05:32:30;;;;;;;9.77;5.38;;;;;;;15.40;59.84;101669.97;3570310;40;20327;-61
2022/06/04 05:34:55;;;;;;;11.40;5.60;;;;;;;15.41;60.23;101674.41;3570656;40;20076;-61
2022/06/04 05:37:21;;;;;;;6.43;5.10;;;;;;;15.47;60.08;101682.13;3571578;40;20049;-60
2022/06/04 05:39:47;;;;;;;6.80;4.88;;;;;;;15.53;60.33;101684.41;3577951;40;20055;-61
2022/06/04 05:42:12;;;;;;;8.77;5.13;;;;;;;15.57;59.67;101679.63;3580212;40;20145;-60
2022/06/04 05:44:38;;;;;;;8.73;5.35;;;;;;;15.60;59.99;101684.00;3578062;40;20064;-60
2022/06/04 05:47:04;;;;;;;8.05;5.95;;;;;;;15.60;60.30;101684.00;3579242;40;20150;-63
2022/06/04 05:49:31;;;;;;;8.52;5.25;;;;;;;15.62;59.48;101688.34;3581678;39;20068;-62
2022/06/04 05:51:57;;;;;;;11.18;5.55;;;;;;;15.68;60.04;101684.38;3578580;40;20077;-62
2022/06/04 05:54:23;;;;;;;7.88;5.70;;;;;;;15.68;59.98;101693.38;3579568;40;20060;-62
2022/06/04 05:56:51;;;;;;;9.02;5.97;;;;;;;15.69;59.38;101691.50;3578026;40;20067;-63
2022/06/04 05:59:21;;;;;;;8.95;5.65;;;;;;;15.68;59.69;101697.91;3579955;40;20072;-62
2022/06/04 06:01:49;;;;;;;9.60;5.65;;;;;;;15.73;59.42;101693.03;3577853;40;20116;-62
2022/06/04 06:04:17;;;;;;;8.00;5.57;;;;;;;15.46;60.25;101639.75;3580305;40;20052;-63
2022/06/04 06:06:48;;;;;;;7.75;5.60;;;;;;;15.72;60.23;101680.47;3579240;40;20476;-62
2022/06/04 06:09:17;;;;;;;8.57;5.97;;;;;;;15.82;59.50;101700.53;3580549;40;20401;-62
2022/06/04 06:11:45;;;;;;;8.15;5.88;;;;;;;15.78;59.06;101685.47;3579648;40;20125;-63
2022/06/04 06:14:12;;;;;;;11.43;6.15;;;;;;;15.84;59.36;101682.31;3578078;40;20414;-62
2022/06/04 06:16:43;;;;;;;10.02;5.93;;;;;;;15.75;59.02;101662.13;3580215;40;20061;-62
2022/06/04 06:19:12;;;;;;;9.10;6.28;;;;;;;15.96;58.90;101686.00;3579461;40;20137;-61
2022/06/04 06:21:37;;;;;;;8.48;6.32;;;;;;;16.00;58.97;101685.66;3579960;40;20085;-62
2022/06/04 06:24:08;;;;;;;8.77;5.78;;;;;;;16.07;59.42;101682.53;3585823;39;20033;-62
2022/06/04 06:26:54;;;;;;;9.68;5.90;;;;;;;16.10;59.22;101685.88;3587571;39;20103;-62
2022/06/04 06:29:26;;;;;;;9.20;6.35;;;;;;;16.25;59.57;101697.50;3585927;40;20056;-65
2022/06/04 06:31:53;;;;;;;7.63;6.05;;;;;;;16.34;58.58;101695.97;3583719;39;20129;-61
2022/06/04 06:34:21;;;;;;;10.55;6.47;;;;;;;16.36;57.87;101703.00;3581755;40;20052;-62
2022/06/04 06:36:47;;;;;;;8.65;5.85;;;;;;;16.43;57.99;101707.03;3576924;40;20092;-61
2022/06/04 06:39:13;;;;;;;12.43;6.32;;;;;;;16.47;58.09;101708.53;3576242;40;20380;-61
2022/06/04 06:41:39;;;;;;;9.70;6.50;;;;;;;16.53;58.23;101703.66;3576729;40;20060;-61
2022/06/04 06:44:06;;;;;;;11.80;6.22;;;;;;;16.59;58.08;101705.91;3576754;40;20406;-62
2022/06/04 06:46:39;;;;;;;7.03;6.07;;;;;;;16.66;57.21;101708.06;3577474;40;20068;-61
2022/06/04 06:49:17;;;;;;;9.85;6.55;;;;;;;16.70;57.33;101722.25;3576600;40;20096;-61
2022/06/04 06:51:49;;;;;;;10.68;5.97;;;;;;;16.67;57.58;101714.34;3577540;40;20087;-62
2022/06/04 06:54:18;;;;;;;8.48;6.20;;;;;;;16.71;57.62;101722.16;3579310;40;20052;-62
2022/06/04 06:56:47;;;;;;;8.85;5.93;;;;;;;16.70;57.35;101720.41;3577399;40;20052;-61
2022/06/04 06:59:13;;;;;;;10.45;6.85;;;;;;;16.69;57.49;101712.41;3577773;40;20061;-63
2022/06/04 07:01:41;;;;;;;10.63;6.93;;;;;;;16.67;57.76;101708.91;3580122;40;20048;-61
2022/06/04 07:04:09;;;;;;;10.95;7.13;;;;;;;16.56;57.23;101700.72;3579602;40;20100;-62
2022/06/04 07:06:42;;;;;;;9.43;5.95;;;;;;;16.54;57.91;101708.09;3585929;39;20050;-61
2022/06/04 07:09:25;;;;;;;9.77;7.00;;;;;;;16.56;57.95;101714.28;3578386;40;20052;-62
2022/06/04 07:11:51;;;;;;;11.85;7.18;;;;;;;16.53;57.90;101712.66;3579366;40;20057;-61
2022/06/04 07:14:19;;;;;;;12.35;7.35;;;;;;;16.55;58.50;101704.38;3577801;40;20044;-63
2022/06/04 07:16:46;;;;;;;8.70;6.85;;;;;;;16.56;58.25;101714.28;3587070;40;20048;-62
2022/06/04 07:19:14;;;;;;;9.20;6.70;;;;;;;16.55;57.89;101712.53;3576598;40;20051;-61
2022/06/04 07:21:40;;;;;;;11.18;7.70;;;;;;;16.52;58.44;101721.75;3578516;40;20113;-61
2022/06/04 07:24:07;;;;;;;10.10;7.20;;;;;;;16.51;58.13;101720.03;3575226;40;20048;-61
2022/06/04 07:26:33;;;;;;;9.13;7.00;;;;;;;16.62;58.91;101719.25;3578819;40;20056;-62
2022/06/04 07:28:59;;;;;;;10.65;7.72;;;;;;;16.70;57.78;101723.13;3585143;39;20063;-62
2022/06/04 07:31:25;;;;;;;9.40;7.60;;;;;;;16.74;57.41;101731.91;3577030;40;20360;-63
2022/06/04 07:33:55;;;;;;;10.35;7.07;;;;;;;16.73;57.09;101730.19;3578997;40;20045;-61
2022/06/04 07:36:29;;;;;;;7.72;6.88;;;;;;;16.77;57.55;101733.56;3577524;40;20065;-62
2022/06/04 07:38:55;;;;;;;10.60;7.32;;;;;;;16.79;57.53;101735.19;3576505;40;20059;-61
2022/06/04 07:41:28;;;;;;;9.70;7.22;;;;;;;16.58;57.70;101702.31;3585972;40;20053;-61
2022/06/04 07:43:54;;;;;;;13.20;7.78;;;;;;;16.84;57.04;101752.03;3578209;40;20442;-62
2022/06/04 07:46:23;;;;;;;8.23;7.40;;;;;;;16.81;57.50;101754.97;3580352;40;20044;-62
2022/06/04 07:48:50;;;;;;;10.48;7.78;;;;;;;16.77;57.38;101756.16;3579149;40;20068;-62
2022/06/04 07:51:17;;;;;;;10.95;7.57;;;;;;;16.81;57.44;101741.41;3578890;40;20071;-63
2022/06/04 07:53:43;;;;;;;13.52;8.02;;;;;;;16.82;57.52;101724.13;3578428;40;20060;-61
2022/06/04 07:56:18;;;;;;;9.85;7.03;;;;;;;16.92;57.20;101730.59;3578770;40;20325;-62
2022/06/04 07:58:44;;;;;;;10.05;7.15;;;;;;;16.93;57.37;101732.31;3577732;40;20068;-61
2022/06/04 08:01:15;;;;;;;11.10;7.60;;;;;;;16.96;57.38;101731.22;3576331;40;20045;-61
2022/06/04 08:03:44;;;;;;;9.93;6.93;;;;;;;17.01;56.92;101741.78;3578796;40;20054;-61
2022/06/04 08:06:13;;;;;;;12.73;8.15;;;;;;;17.00;57.50;101737.28;3579696;40;20064;-61
2022/06/04 08:08:39;;;;;;;11.48;8.00;;;;;;;17.05;56.81;101738.69;3580765;40;20122;-60
2022/06/04 08:11:30;;;;;;;10.07;7.22;;;;;;;17.02;56.47;101740.78;3576037;40;20568;-61
2022/06/04 08:13:52;;;;;;;11.40;7.50;;;;;;;17.05;56.80;101740.56;3576765;40;20069;-61
2022/06/04 08:16:19;;;;;;;8.35;7.35;;;;;;;17.10;56.46;101739.22;3578792;40;20068;-61
2022/06/04 08:18:46;;;;;;;8.02;7.15;;;;;;;17.13;56.98;101725.41;3577343;40;20303;-62
2022/06/04 08:21:12;;;;;;;13.38;8.00;;;;;;;17.22;57.22;101731.13;3578507;40;20108;-61
2022/06/04 08:23:43;;;;;;;10.02;7.47;;;;;;;17.27;56.99;101734.38;3579643;40;20092;-61
2022/06/04 08:26:10;;;;;;;9.30;7.28;;;;;;;17.31;56.91;101725.00;3576563;40;20041;-61
2022/06/04 08:28:36;;;;;;;11.18;7.53;;;;;;;17.31;56.67;101715.00;3579290;40;20093;-61
2022/06/04 08:31:22;;;;;;;9.85;7.38;;;;;;;17.39;56.73;101717.13;3582731;40;20052;-61
2022/06/04 08:33:48;;;;;;;8.27;7.18;;;;;;;17.41;56.59;101715.16;3581178;40;20060;-62
2022/06/04 08:36:16;;;;;;;12.65;7.97;;;;;;;17.46;56.54;101712.97;3581798;40;20052;-61
2022/06/04 08:38:43;;;;;;;12.07;7.80;;;;;;;17.50;55.83;101716.31;3582801;40;20056;-61
2022/06/04 08:41:38;;;;;;;11.23;7.50;;;;;;;17.50;55.82;101725.31;3583851;40;20312;-62
2022/06/04 08:44:20;;;;;;;10.50;8.10;;;;;;;17.56;56.19;101724.84;3581846;40;20060;-61
2022/06/04 08:47:05;;;;;;;9.93;7.47;;;;;;;17.69;56.29;101732.94;3581010;40;20052;-61
2022/06/04 08:49:59;;;;;;;9.23;7.57;;;;;;;17.83;56.38;101726.47;3581797;40;20329;-62
2022/06/04 08:52:35;;;;;;;13.10;8.05;;;;;;;17.89;55.14;101726.00;3581864;40;20063;-62
2022/06/04 08:58:10;;;;;;;11.75;7.45;;;;;;;18.45;54.20;101733.34;3582497;40;20110;-62
2022/06/04 09:01:03;;;;;;;8.32;7.28;;;;;;;18.68;53.16;101740.53;3580601;40;20055;-62
2022/06/04 09:04:17;;;;;;;10.35;7.40;;;;;;;19.00;52.88;101746.06;3580332;40;20044;-61
2022/06/04 09:07:06;;;;;;;10.32;7.35;;;;;;;19.42;52.50;101745.31;3580913;40;20590;-60
2022/06/04 09:09:41;;;;;;;10.65;7.43;;;;;;;20.02;50.98;101738.34;3580849;40;20048;-61
2022/06/04 09:12:47;;;;;;;9.88;7.10;;;;;;;20.76;48.82;101742.75;3589891;40;20056;-61
2022/06/04 09:15:19;;;;;;;10.10;7.20;;;;;;;21.27;47.41;101730.78;3580018;40;20101;-61
2022/06/04 09:17:51;;;;;;;10.75;7.40;;;;;;;21.58;46.66;101727.94;3580861;40;20141;-61
2022/06/04 09:20:19;;;;;;;7.63;6.90;;;;;;;21.83;46.41;101732.81;3581410;40;20056;-61
2022/06/04 09:22:48;;;;;;;8.95;6.80;;;;;;;21.81;45.26;101732.09;3579582;40;20054;-63
2022/06/04 09:25:20;;;;;;;9.88;7.10;;;;;;;21.66;45.75;101736.28;3580918;40;20056;-62
2022/06/04 09:28:15;;;;;;;9.55;7.15;;;;;;;21.46;45.92;101736.28;3580828;40;20049;-61
2022/06/04 09:31:16;;;;;;;8.55;6.40;;;;;;;21.41;46.51;101743.19;3582103;40;20401;-62
2022/06/04 09:33:44;;;;;;;8.85;7.03;;;;;;;21.43;46.13;101744.78;3576369;40;20063;-61
2022/06/04 09:36:22;;;;;;;11.07;8.45;;;;;;;21.41;47.52;101738.59;3581359;40;20064;-60
2022/06/04 09:39:26;;;;;;;10.07;6.97;;;;;;;22.00;46.89;101737.53;3580609;39;20063;-61
2022/06/04 09:42:00;;;;;;;7.45;6.75;;;;;;;22.27;45.78;101738.66;3579660;40;20350;-62
2022/06/04 09:44:29;;;;;;;15.55;7.25;;;;;;;22.45;44.31;101741.47;3580332;40;20583;-62
2022/06/04 09:47:20;;;;;;;10.38;7.00;;;;;;;22.49;44.87;101731.97;3580531;40;20068;-61
2022/06/04 09:49:59;;;;;;;10.80;7.20;;;;;;;22.46;44.96;101744.06;3580565;40;20125;-61
2022/06/04 09:52:42;;;;;;;12.32;7.80;;;;;;;22.31;44.41;101748.31;3578193;40;20396;-61
2022/06/04 09:55:20;;;;;;;9.30;7.32;;;;;;;22.03;45.54;101734.50;3581886;40;20376;-61
2022/06/04 09:58:06;;;;;;;11.82;7.45;;;;;;;21.96;44.65;101754.41;3580141;40;20491;-61
2022/06/04 10:00:38;;;;;;;12.13;7.20;;;;;;;21.95;46.00;101731.66;3580559;40;20088;-60
2022/06/04 10:03:15;;;;;;;10.48;8.10;;;;;;;21.99;44.83;101743.16;3579997;40;20076;-61
2022/06/04 10:06:00;;;;;;;12.20;7.25;;;;;;;22.13;45.95;101755.53;3580375;40;20056;-61
2022/06/04 10:08:29;;;;;;;9.95;7.45;;;;;;;22.18;46.46;101758.72;3581346;40;20056;-60
2022/06/04 10:11:05;;;;;;;11.82;8.30;;;;;;;22.35;46.19;101757.94;3579952;40;20067;-61
2022/06/04 10:13:43;;;;;;;10.90;7.68;;;;;;;22.57;45.17;101747.63;3581898;40;20137;-61
2022/06/04 10:16:26;;;;;;;10.02;7.57;;;;;;;22.93;43.82;101749.50;3579601;40;20065;-61
2022/06/04 10:19:13;;;;;;;11.95;8.13;;;;;;;22.98;43.26;101753.66;3578653;40;20067;-61
2022/06/04 10:21:42;;;;;;;9.82;7.85;;;;;;;22.97;43.40;101761.03;3580034;40;20063;-61
2022/06/04 10:24:28;;;;;;;10.93;8.00;;;;;;;22.85;44.72;101757.59;3579433;40;20071;-61
2022/06/04 10:27:37;;;;;;;11.55;7.95;;;;;;;22.83;45.05;101758.75;3579079;40;20061;-62
2022/06/04 10:30:48;;;;;;;8.90;7.80;;;;;;;22.69;43.88;101757.41;3578996;40;20048;-60
2022/06/04 10:33:53;;;;;;;10.43;8.10;;;;;;;22.84;44.19;101760.50;3575636;40;20060;-61
2022/06/04 10:36:39;;;;;;;10.65;8.13;;;;;;;23.14;43.44;101762.09;3580297;40;20056;-61
2022/06/04 10:39:24;;;;;;;11.50;8.05;;;;;;;23.47;42.46;101773.41;3579667;40;20126;-61
2022/06/04 10:42:00;;;;;;;9.52;7.47;;;;;;;23.64;45.25;101758.81;3577098;40;20070;-60
2022/06/04 10:45:05;;;;;;;9.13;8.20;;;;;;;23.88;42.45;101762.81;3580493;40;20064;-61
2022/06/04 10:47:48;;;;;;;10.50;7.95;;;;;;;24.15;41.75;101765.44;3579760;40;20102;-61
2022/06/04 10:54:08;;;;;;;10.02;7.63;;;;;;;24.97;40.67;101763.19;3579551;40;20047;-60
2022/06/04 10:57:05;;;;;;;10.88;8.10;;;;;;;25.29;39.00;101761.56;3580822;40;20052;-61
2022/06/04 10:59:52;;;;;;;11.98;8.65;;;;;;;25.60;39.02;101756.31;3577702;40;20472;-60
2022/06/04 11:02:22;;;;;;;11.07;8.20;;;;;;;25.87;39.06;101760.63;3579858;40;20114;-60
2022/06/04 11:05:00;;;;;;;8.93;7.97;;;;;;;26.09;37.79;101753.56;3579431;40;20052;-63
2022/06/04 11:07:58;;;;;;;10.85;8.40;;;;;;;25.89;39.32;101758.56;3580324;40;20134;-61
2022/06/04 11:10:33;;;;;;;9.93;7.65;;;;;;;25.74;38.38;101765.75;3580509;40;20087;-61
2022/06/04 11:13:32;;;;;;;10.20;7.95;;;;;;;25.79;38.19;101760.63;3581728;40;20054;-60
2022/06/04 11:16:09;;;;;;;8.77;7.40;;;;;;;25.60;38.42;101754.41;3576888;40;20067;-61
2022/06/04 11:18:56;;;;;;;12.75;8.35;;;;;;;25.59;38.32;101760.91;3578772;40;20060;-61
2022/06/04 11:22:03;;;;;;;8.85;7.55;;;;;;;25.76;38.67;101766.47;3580334;40;20057;-61
2022/06/04 11:24:42;;;;;;;10.45;8.00;;;;;;;25.46;39.15;101689.84;3576999;40;20371;-61
2022/06/04 11:27:24;;;;;;;9.88;8.55;;;;;;;25.73;38.23;101762.16;3581169;40;20065;-61
2022/06/04 11:29:53;;;;;;;10.85;7.78;;;;;;;25.88;38.77;101737.53;3580146;40;20319;-60
2022/06/04 11:32:45;;;;;;;9.50;8.50;;;;;;;26.03;38.76;101741.31;3578082;40;20049;-60
2022/06/04 11:35:34;;;;;;;9.88;7.90;;;;;;;26.42;37.60;101759.88;3580163;40;20052;-60
2022/06/04 11:38:36;;;;;;;9.60;7.30;;;;;;;26.88;37.25;101751.81;3580901;40;20075;-61
2022/06/04 11:41:19;;;;;;;9.30;8.30;;;;;;;27.27;36.92;101749.00;3578695;40;20391;-61
2022/06/04 11:44:37;;;;;;;10.45;7.45;;;;;;;27.60;34.99;101748.81;3577091;40;20060;-59
2022/06/04 11:47:34;;;;;;;10.30;7.45;;;;;;;27.78;34.40;101740.22;3579510;40;20068;-60
2022/06/04 11:50:11;;;;;;;11.25;7.97;;;;;;;27.61;35.42;101738.59;3577231;40;20411;-61
2022/06/04 11:53:01;;;;;;;10.38;7.85;;;;;;;27.55;36.11;101741.06;3578349;40;20063;-61
2022/06/04 11:55:58;;;;;;;9.50;8.52;;;;;;;27.55;34.46;101731.91;3578921;40;20418;-62
2022/06/04 11:59:03;;;;;;;7.93;7.00;;;;;;;27.81;33.55;101728.78;3577572;40;20690;-61
2022/06/04 12:01:43;;;;;;;9.65;7.50;;;;;;;27.89;35.04;101731.50;3577782;40;20051;-60
2022/06/04 12:04:33;;;;;;;10.02;7.72;;;;;;;27.99;34.69;101728.47;3581371;40;20072;-61
2022/06/04 12:07:20;;;;;;;8.75;7.82;;;;;;;28.05;34.34;101724.09;3580832;40;20109;-61
2022/06/04 12:10:14;;;;;;;9.30;7.15;;;;;;;28.35;34.05;101713.91;3580444;40;20363;-61
2022/06/04 12:13:03;;;;;;;7.28;6.57;;;;;;;28.53;35.04;101716.31;3580120;40;20343;-61
2022/06/04 12:16:00;;;;;;;8.02;6.65;;;;;;;28.62;34.19;101707.72;3578394;40;20424;-60